Time;durP1;ratioP1;P1;durP2;ratioP2;P2;SDS_P1;SDS_P2;PMS_P1;PMS_P2;Temp;Humidity;BMP_temperature;BMP_pressure;BME280_temperature;BME280_humidity;BME280_pressure;Samples;Min_cycle;Max_cycle;Signal;HPM_P1;HPM_P2
2022/09/09 00:01:11;;;;;;;1.65;1.40;;;;;;;;;;5041888;28;20045;-74
2022/09/09 00:03:45;;;;;;;5.18;1.73;;;;;;;;;;5039414;28;20099;-75
2022/09/09 00:06:25;;;;;;;2.35;1.60;;;;;;;;;;5033025;28;20049;-75
2022/09/09 00:09:01;;;;;;;3.67;1.20;;;;;;;;;;5038364;28;20154;-75
2022/09/09 00:11:42;;;;;;;2.90;1.70;;;;;;;;;;5022973;28;20049;-77
2022/09/09 00:14:13;;;;;;;3.40;1.50;;;;;;;;;;5025198;28;20061;-77
2022/09/09 00:16:42;;;;;;;4.75;1.48;;;;;;;;;;5041809;28;20511;-76
2022/09/09 00:19:13;;;;;;;2.63;1.30;;;;;;;;;;5042139;28;20033;-76
2022/09/09 00:21:45;;;;;;;1.88;1.20;;;;;;;;;;5032226;28;20545;-76
2022/09/09 00:24:27;;;;;;;1.15;1.15;;;;;;;;;;5034279;28;20134;-76
2022/09/09 00:26:54;;;;;;;;;;;;;;;;;;5034400;28;20075;-75
2022/09/09 00:29:29;;;;;;;2.08;1.00;;;;;;;;;;5017630;28;19960;-75
2022/09/09 00:32:17;;;;;;;5.30;1.38;;;;;;;;;;5015668;28;20041;-75
2022/09/09 00:34:50;;;;;;;1.40;1.25;;;;;;;;;;5039860;28;20405;-74
2022/09/09 00:37:18;;;;;;;1.77;1.27;;;;;;;;;;5037763;28;20040;-75
2022/09/09 00:39:51;;;;;;;3.53;1.65;;;;;;;;;;5020775;28;20116;-75
2022/09/09 00:42:23;;;;;;;2.25;1.27;;;;;;;;;;5040745;28;20037;-75
2022/09/09 00:44:51;;;;;;;;;;;;;;;;;;5041388;28;20135;-74
2022/09/09 00:47:31;;;;;;;3.60;1.50;;;;;;;;;;5039934;28;19925;-75
2022/09/09 00:50:01;;;;;;;2.25;1.27;;;;;;;;;;5037543;28;20090;-77
2022/09/09 00:52:35;;;;;;;3.80;1.33;;;;;;;;;;5025032;28;20056;-75
2022/09/09 00:55:09;;;;;;;2.95;1.58;;;;;;;;;;5041709;28;20037;-75
2022/09/09 00:57:37;;;;;;;3.15;1.40;;;;;;;;;;5037401;28;20045;-76
2022/09/09 01:00:23;;;;;;;2.08;1.63;;;;;;;;;;5041825;28;20041;-76
2022/09/09 01:03:10;;;;;;;1.90;1.40;;;;;;;;;;5043718;28;20041;-75
2022/09/09 01:05:46;;;;;;;1.40;1.30;;;;;;;;;;5044340;28;20040;-76
2022/09/09 01:08:33;;;;;;;2.03;1.60;;;;;;;;;;5028233;28;20124;-77
2022/09/09 01:11:02;;;;;;;4.70;1.65;;;;;;;;;;5044976;28;20059;-75
2022/09/09 01:13:31;;;;;;;1.58;1.52;;;;;;;;;;5030797;28;20120;-76
2022/09/09 01:16:05;;;;;;;3.03;1.73;;;;;;;;;;5010309;28;20041;-74
2022/09/09 01:18:44;;;;;;;2.83;1.60;;;;;;;;;;4998319;28;20055;-75
2022/09/09 01:21:25;;;;;;;3.30;1.83;;;;;;;;;;5046358;28;20407;-76
2022/09/09 01:23:56;;;;;;;4.13;1.97;;;;;;;;;;5046512;28;20052;-77
2022/09/09 01:26:32;;;;;;;2.45;2.28;;;;;;;;;;5059073;28;20286;-76
2022/09/09 01:29:11;;;;;;;4.97;2.60;;;;;;;;;;5025852;28;20053;-76
2022/09/09 01:31:41;;;;;;;3.78;3.47;;;;;;;;;;5036896;28;20493;-75
2022/09/09 01:34:13;;;;;;;5.15;3.78;;;;;;;;;;5022218;28;20082;-75
2022/09/09 01:36:51;;;;;;;5.80;3.67;;;;;;;;;;5023675;28;20308;-75
2022/09/09 01:39:20;;;;;;;4.38;3.97;;;;;;;;;;5039609;28;20416;-76
2022/09/09 01:41:55;;;;;;;5.97;4.20;;;;;;;;;;5016347;28;20066;-74
2022/09/09 01:44:23;;;;;;;12.07;4.50;;;;;;;;;;5025532;28;20403;-76
2022/09/09 01:46:51;;;;;;;6.95;5.07;;;;;;;;;;5042498;28;20048;-75
2022/09/09 01:49:21;;;;;;;11.20;4.50;;;;;;;;;;5043476;28;20401;-76
2022/09/09 01:51:50;;;;;;;12.18;4.93;;;;;;;;;;5038442;28;20053;-74
2022/09/09 01:54:19;;;;;;;5.03;4.22;;;;;;;;;;5010849;28;20048;-76
2022/09/09 01:57:13;;;;;;;4.18;3.78;;;;;;;;;;5040133;28;20033;-76
2022/09/09 02:00:11;;;;;;;5.63;4.10;;;;;;;;;;5012591;28;20495;-74
2022/09/09 02:02:44;;;;;;;4.40;4.00;;;;;;;;;;5037185;28;20058;-75
2022/09/09 02:05:18;;;;;;;7.57;4.47;;;;;;;;;;5023906;28;20719;-74
2022/09/09 02:07:49;;;;;;;6.07;4.00;;;;;;;;;;5024196;28;20470;-75
2022/09/09 02:10:39;;;;;;;8.75;4.95;;;;;;;;;;5039200;28;20046;-75
2022/09/09 02:13:15;;;;;;;7.75;6.05;;;;;;;;;;5039428;28;20400;-75
2022/09/09 02:15:45;;;;;;;6.88;5.10;;;;;;;;;;5044783;28;20772;-76
2022/09/09 02:18:14;;;;;;;11.82;6.35;;;;;;;;;;5041798;28;20399;-75
2022/09/09 02:20:43;;;;;;;6.38;5.70;;;;;;;;;;5022122;28;20068;-75
2022/09/09 02:23:11;;;;;;;7.40;5.53;;;;;;;;;;5045631;28;20045;-75
2022/09/09 02:25:42;;;;;;;6.80;5.55;;;;;;;;;;5024884;28;20071;-75
2022/09/09 02:28:19;;;;;;;17.88;6.35;;;;;;;;;;5023652;28;20049;-77
2022/09/09 02:30:50;;;;;;;6.55;5.93;;;;;;;;;;5026070;28;20044;-76
2022/09/09 02:33:18;;;;;;;6.55;5.95;;;;;;;;;;5016974;28;20106;-77
2022/09/09 02:35:50;;;;;;;7.25;6.32;;;;;;;;;;5008877;28;20455;-75
2022/09/09 02:38:22;;;;;;;6.50;5.82;;;;;;;;;;5039420;28;20037;-76
2022/09/09 02:41:01;;;;;;;5.63;5.13;;;;;;;;;;5013425;28;20059;-76
2022/09/09 02:43:35;;;;;;;5.68;5.18;;;;;;;;;;5046583;28;20633;-75
2022/09/09 02:46:26;;;;;;;7.28;5.68;;;;;;;;;;5027708;28;20049;-75
2022/09/09 02:48:59;;;;;;;7.80;6.80;;;;;;;;;;5018631;28;20135;-74
2022/09/09 02:51:40;;;;;;;8.00;6.78;;;;;;;;;;5032340;28;20052;-75
2022/09/09 02:54:10;;;;;;;6.90;6.20;;;;;;;;;;5043256;28;20048;-75
2022/09/09 02:56:40;;;;;;;5.20;4.70;;;;;;;;;;5029277;28;20070;-75
2022/09/09 02:59:10;;;;;;;;;;;;;;;;;;5050066;28;20040;-77
2022/09/09 03:01:39;;;;;;;9.18;7.07;;;;;;;;;;5029280;28;20320;-76
2022/09/09 03:04:09;;;;;;;8.13;6.68;;;;;;;;;;5025726;28;20056;-76
2022/09/09 03:06:37;;;;;;;10.93;7.13;;;;;;;;;;5028106;28;20083;-72
2022/09/09 03:09:14;;;;;;;10.95;7.75;;;;;;;;;;5028575;28;20047;-75
2022/09/09 03:11:42;;;;;;;11.80;7.78;;;;;;;;;;5025780;28;20049;-75
2022/09/09 03:14:11;;;;;;;11.18;8.05;;;;;;;;;;5040097;28;20128;-75
2022/09/09 03:16:39;;;;;;;12.90;8.15;;;;;;;;;;5028188;28;20090;-76
2022/09/09 03:19:07;;;;;;;10.50;7.20;;;;;;;;;;5047426;28;20064;-75
2022/09/09 03:21:35;;;;;;;13.27;8.65;;;;;;;;;;5029004;28;20059;-74
2022/09/09 03:24:03;;;;;;;15.15;9.38;;;;;;;;;;5011571;28;20063;-75
2022/09/09 03:26:31;;;;;;;13.88;10.38;;;;;;;;;;5026919;28;20055;-75
2022/09/09 03:29:00;;;;;;;16.95;10.43;;;;;;;;;;5017889;28;20048;-75
2022/09/09 03:31:30;;;;;;;16.90;10.30;;;;;;;;;;5012159;28;20127;-76
2022/09/09 03:33:58;;;;;;;15.55;10.05;;;;;;;;;;5061925;28;20047;-76
2022/09/09 03:36:29;;;;;;;17.52;11.43;;;;;;;;;;5044002;28;20052;-75
2022/09/09 03:38:56;;;;;;;20.08;11.30;;;;;;;;;;5019513;28;20060;-76
2022/09/09 03:41:26;;;;;;;16.58;9.50;;;;;;;;;;5005167;28;20399;-76
2022/09/09 03:43:54;;;;;;;20.00;9.73;;;;;;;;;;5033666;28;20040;-76
2022/09/09 03:46:24;;;;;;;14.82;10.55;;;;;;;;;;5010644;28;20102;-74
2022/09/09 03:48:54;;;;;;;18.55;10.80;;;;;;;;;;5027509;28;20053;-75
2022/09/09 03:51:22;;;;;;;11.15;9.00;;;;;;;;;;5042931;28;20036;-76
2022/09/09 03:53:50;;;;;;;13.48;9.98;;;;;;;;;;5011628;28;20454;-75
2022/09/09 03:56:17;;;;;;;10.57;9.02;;;;;;;;;;5019523;28;20060;-75
2022/09/09 03:58:45;;;;;;;14.43;9.40;;;;;;;;;;5016363;28;20431;-75
2022/09/09 04:01:13;;;;;;;13.93;8.60;;;;;;;;;;5038940;28;20045;-74
2022/09/09 04:03:43;;;;;;;10.40;8.60;;;;;;;;;;5041287;28;20128;-76
2022/09/09 04:06:14;;;;;;;12.93;9.25;;;;;;;;;;5043291;28;20037;-75
2022/09/09 04:08:48;;;;;;;13.88;9.57;;;;;;;;;;5026141;28;20033;-76
2022/09/09 04:11:16;;;;;;;13.60;8.45;;;;;;;;;;5053025;28;20120;-75
2022/09/09 04:13:45;;;;;;;11.40;9.20;;;;;;;;;;5026327;28;20037;-75
2022/09/09 04:16:14;;;;;;;12.00;10.27;;;;;;;;;;5022500;28;20041;-75
2022/09/09 04:18:43;;;;;;;9.52;8.10;;;;;;;;;;5018776;28;20055;-76
2022/09/09 04:21:12;;;;;;;9.10;8.20;;;;;;;;;;5027510;28;20473;-76
2022/09/09 04:23:40;;;;;;;9.52;8.52;;;;;;;;;;5025955;28;20051;-75
2022/09/09 04:26:08;;;;;;;8.98;8.00;;;;;;;;;;5019859;28;20039;-76
2022/09/09 04:28:37;;;;;;;9.98;7.82;;;;;;;;;;5067319;22;20053;-84
2022/09/09 04:31:15;;;;;;;8.07;7.20;;;;;;;;;;5035414;28;20041;-84
2022/09/09 04:33:43;;;;;;;8.50;7.63;;;;;;;;;;5052736;28;20065;-82
2022/09/09 04:36:13;;;;;;;8.77;7.80;;;;;;;;;;5006256;28;20029;-83
2022/09/09 04:38:41;;;;;;;9.40;8.50;;;;;;;;;;5025598;28;20511;-84
2022/09/09 04:41:12;;;;;;;9.20;7.75;;;;;;;;;;5028584;28;20041;-83
2022/09/09 04:43:42;;;;;;;8.65;7.65;;;;;;;;;;5024497;28;20058;-82
2022/09/09 04:46:10;;;;;;;7.82;7.03;;;;;;;;;;5014019;28;20113;-85
2022/09/09 04:48:39;;;;;;;8.05;7.28;;;;;;;;;;5024603;28;20037;-82
2022/09/09 04:51:14;;;;;;;7.55;6.85;;;;;;;;;;5005916;28;20042;-83
2022/09/09 04:53:47;;;;;;;8.02;7.20;;;;;;;;;;5018611;28;20084;-83
2022/09/09 04:56:18;;;;;;;9.32;8.35;;;;;;;;;;5017291;28;20133;-83
2022/09/09 04:58:50;;;;;;;9.88;8.23;;;;;;;;;;5007320;28;20049;-86
2022/09/09 05:01:27;;;;;;;8.63;7.90;;;;;;;;;;5021964;28;20115;-85
2022/09/09 05:04:01;;;;;;;10.32;8.23;;;;;;;;;;5008685;28;20128;-84
2022/09/09 05:06:55;;;;;;;9.23;7.40;;;;;;;;;;5022089;28;20045;-84
2022/09/09 05:09:26;;;;;;;10.88;7.97;;;;;;;;;;5007294;28;20052;-83
2022/09/09 05:15:13;;;;;;;7.22;6.53;;;;;;;;;;5016519;28;20092;-82
2022/09/09 05:17:41;;;;;;;7.88;7.07;;;;;;;;;;5021992;28;20056;-85
2022/09/09 05:20:13;;;;;;;8.70;7.70;;;;;;;;;;5004338;28;20077;-83
2022/09/09 05:22:43;;;;;;;7.18;6.57;;;;;;;;;;5020545;28;20426;-83
2022/09/09 05:25:11;;;;;;;7.28;6.68;;;;;;;;;;5020139;28;20041;-84
2022/09/09 05:27:39;;;;;;;7.97;7.18;;;;;;;;;;5022025;28;20041;-85
2022/09/09 05:30:07;;;;;;;7.93;7.22;;;;;;;;;;4999338;28;20524;-84
2022/09/09 05:32:38;;;;;;;7.25;6.63;;;;;;;;;;4991704;28;20050;-83
2022/09/09 05:35:05;;;;;;;8.10;6.68;;;;;;;;;;5024569;28;20049;-84
2022/09/09 05:37:33;;;;;;;6.78;6.18;;;;;;;;;;5026450;28;20174;-84
2022/09/09 05:40:04;;;;;;;7.60;6.90;;;;;;;;;;5042440;28;20043;-84
2022/09/09 05:42:32;;;;;;;8.65;6.72;;;;;;;;;;5021403;28;20045;-83
2022/09/09 05:45:00;;;;;;;7.15;6.47;;;;;;;;;;5023255;28;20091;-85
2022/09/09 05:47:30;;;;;;;7.57;6.65;;;;;;;;;;5023607;28;20057;-86
2022/09/09 05:50:02;;;;;;;6.93;6.18;;;;;;;;;;5006404;28;20411;-85
2022/09/09 05:52:30;;;;;;;6.47;5.88;;;;;;;;;;5029390;28;20045;-84
2022/09/09 05:54:59;;;;;;;7.28;5.50;;;;;;;;;;5026306;28;20116;-85
2022/09/09 05:57:28;;;;;;;5.90;5.32;;;;;;;;;;5024743;28;20049;-85
2022/09/09 05:59:59;;;;;;;8.55;5.70;;;;;;;;;;4996328;28;20053;-87
2022/09/09 06:02:52;;;;;;;8.25;7.07;;;;;;;;;;5019235;28;20053;-85
2022/09/09 06:05:35;;;;;;;7.57;6.65;;;;;;;;;;5001897;28;20045;-86
2022/09/09 06:08:21;;;;;;;12.80;8.52;;;;;;;;;;5008538;28;20492;-86
2022/09/09 06:10:49;;;;;;;8.70;6.35;;;;;;;;;;5028114;28;20095;-87
2022/09/09 06:13:19;;;;;;;8.05;7.25;;;;;;;;;;4993073;28;20407;-84
2022/09/09 06:15:50;;;;;;;9.10;7.03;;;;;;;;;;5018190;28;20037;-84
2022/09/09 06:18:19;;;;;;;8.70;7.07;;;;;;;;;;5005828;28;20132;-83
2022/09/09 06:20:57;;;;;;;8.85;6.68;;;;;;;;;;5023652;28;20045;-85
2022/09/09 06:23:25;;;;;;;6.85;6.15;;;;;;;;;;5020109;28;20041;-84
2022/09/09 06:26:01;;;;;;;6.72;6.05;;;;;;;;;;5023389;28;20069;-84
2022/09/09 06:28:30;;;;;;;6.97;5.70;;;;;;;;;;5004633;28;20640;-85
2022/09/09 06:30:59;;;;;;;6.65;6.05;;;;;;;;;;5022509;28;20344;-83
2022/09/09 06:33:27;;;;;;;6.80;6.20;;;;;;;;;;5006053;28;20058;-85
2022/09/09 06:35:58;;;;;;;6.13;5.53;;;;;;;;;;5002906;28;20124;-85
2022/09/09 06:38:32;;;;;;;7.90;6.90;;;;;;;;;;5010469;28;20045;-87
2022/09/09 06:41:26;;;;;;;6.50;6.00;;;;;;;;;;5027436;28;20054;-84
2022/09/09 06:44:19;;;;;;;6.43;5.82;;;;;;;;;;5006814;28;20053;-86
2022/09/09 06:46:49;;;;;;;8.60;6.53;;;;;;;;;;5022754;28;20045;-85
2022/09/09 06:49:18;;;;;;;6.53;5.78;;;;;;;;;;5026537;28;20042;-84
2022/09/09 06:51:49;;;;;;;7.25;6.43;;;;;;;;;;5025867;28;20045;-86
2022/09/09 06:54:16;;;;;;;6.18;5.57;;;;;;;;;;5026779;28;20100;-85
2022/09/09 06:56:45;;;;;;;6.22;5.63;;;;;;;;;;5010626;28;20099;-84
2022/09/09 06:59:21;;;;;;;8.00;5.85;;;;;;;;;;5008194;28;20510;-82
2022/09/09 07:01:59;;;;;;;7.80;5.35;;;;;;;;;;5022460;28;20545;-84
2022/09/09 07:04:26;;;;;;;5.82;5.32;;;;;;;;;;5028381;28;20140;-85
2022/09/09 07:06:54;;;;;;;6.13;5.53;;;;;;;;;;5012956;28;20453;-85
2022/09/09 07:09:24;;;;;;;6.72;5.22;;;;;;;;;;5025310;28;20042;-85
2022/09/09 07:11:53;;;;;;;6.50;5.90;;;;;;;;;;5011857;28;20053;-84
2022/09/09 07:14:22;;;;;;;6.20;5.60;;;;;;;;;;5017767;28;20124;-85
2022/09/09 07:16:55;;;;;;;8.65;6.25;;;;;;;;;;4989688;28;20044;-86
2022/09/09 07:19:27;;;;;;;8.00;5.60;;;;;;;;;;5026598;28;20060;-83
2022/09/09 07:21:58;;;;;;;6.10;5.50;;;;;;;;;;5027853;28;20049;-83
2022/09/09 07:24:30;;;;;;;5.50;5.00;;;;;;;;;;4996462;28;20064;-85
2022/09/09 07:26:59;;;;;;;6.55;5.80;;;;;;;;;;5025159;28;20661;-84
2022/09/09 07:29:26;;;;;;;6.10;5.60;;;;;;;;;;5021684;28;20128;-84
2022/09/09 07:31:54;;;;;;;5.85;5.35;;;;;;;;;;5028585;28;20042;-84
2022/09/09 07:34:26;;;;;;;6.05;5.55;;;;;;;;;;5047094;28;20038;-83
2022/09/09 07:36:54;;;;;;;6.97;6.05;;;;;;;;;;4997655;28;20123;-82
2022/09/09 07:39:24;;;;;;;7.20;6.07;;;;;;;;;;5026579;28;20044;-85
2022/09/09 07:41:54;;;;;;;;;;;;;;;;;;5028653;28;20074;-84
2022/09/09 07:44:27;;;;;;;6.35;5.75;;;;;;;;;;5007317;28;19956;-84
2022/09/09 07:47:01;;;;;;;6.38;5.78;;;;;;;;;;5006577;28;20037;-86
2022/09/09 07:49:34;;;;;;;6.20;5.70;;;;;;;;;;5007467;28;20482;-85
2022/09/09 07:52:04;;;;;;;6.43;5.60;;;;;;;;;;5010335;28;20069;-84
2022/09/09 07:54:32;;;;;;;5.85;5.35;;;;;;;;;;5010381;28;20435;-85
2022/09/09 07:57:03;;;;;;;6.15;5.50;;;;;;;;;;5011981;28;20251;-85
2022/09/09 07:59:33;;;;;;;6.03;5.43;;;;;;;;;;5028516;28;20493;-84
2022/09/09 08:02:01;;;;;;;6.15;5.55;;;;;;;;;;5028599;28;20143;-86
2022/09/09 08:04:31;;;;;;;6.57;5.82;;;;;;;;;;5028425;28;20049;-86
2022/09/09 08:07:01;;;;;;;8.82;5.50;;;;;;;;;;5011470;28;20049;-85
2022/09/09 08:09:33;;;;;;;7.25;5.50;;;;;;;;;;5012235;28;20064;-85
2022/09/09 08:12:08;;;;;;;7.18;5.32;;;;;;;;;;5028167;28;20118;-85
2022/09/09 08:14:36;;;;;;;9.27;5.80;;;;;;;;;;5028107;28;20124;-84
2022/09/09 08:17:06;;;;;;;5.80;5.30;;;;;;;;;;5027994;28;20041;-85
2022/09/09 08:19:35;;;;;;;6.32;5.75;;;;;;;;;;5028155;28;20101;-81
2022/09/09 08:22:25;;;;;;;7.05;6.25;;;;;;;;;;5027592;28;20139;-83
2022/09/09 08:25:06;;;;;;;7.05;6.32;;;;;;;;;;5011844;28;20050;-85
2022/09/09 08:27:40;;;;;;;6.30;5.70;;;;;;;;;;5027477;28;20129;-85
2022/09/09 08:30:32;;;;;;;6.25;5.55;;;;;;;;;;5028287;28;20065;-84
2022/09/09 08:33:07;;;;;;;8.18;5.82;;;;;;;;;;5012112;28;20048;-84
2022/09/09 08:35:42;;;;;;;6.20;5.63;;;;;;;;;;5028788;28;20146;-82
2022/09/09 08:38:16;;;;;;;6.63;5.90;;;;;;;;;;5028470;28;20041;-86
2022/09/09 08:41:12;;;;;;;8.27;6.13;;;;;;;;;;5012103;28;20045;-87
2022/09/09 08:43:47;;;;;;;5.70;5.07;;;;;;;;;;5012685;28;20068;-85
2022/09/09 08:46:35;;;;;;;6.10;5.10;;;;;;;;;;4997118;28;20428;-84
2022/09/09 08:49:37;;;;;;;5.70;5.13;;;;;;;;;;5012196;28;20140;-86
2022/09/09 08:55:48;;;;;;;5.57;5.07;;;;;;;;;;5024768;28;20053;-85
2022/09/09 08:58:47;;;;;;;6.13;5.57;;;;;;;;;;5034570;28;20049;-86
2022/09/09 09:01:50;;;;;;;4.75;4.20;;;;;;;;;;5012906;28;20152;-85
2022/09/09 09:04:38;;;;;;;7.13;4.78;;;;;;;;;;5014863;28;20044;-86
2022/09/09 09:07:08;;;;;;;5.13;4.28;;;;;;;;;;5030001;28;20598;-85
2022/09/09 09:09:40;;;;;;;4.88;4.38;;;;;;;;;;4998612;28;20049;-86
2022/09/09 09:12:15;;;;;;;5.35;4.28;;;;;;;;;;5034092;28;20045;-84
2022/09/09 09:14:43;;;;;;;4.28;3.88;;;;;;;;;;5017845;28;20076;-85
2022/09/09 09:17:17;;;;;;;4.10;3.50;;;;;;;;;;5017064;28;20049;-87
2022/09/09 09:19:46;;;;;;;6.15;4.13;;;;;;;;;;5016813;28;20037;-85
2022/09/09 09:22:16;;;;;;;3.97;3.67;;;;;;;;;;5032312;28;20168;-86
2022/09/09 09:24:50;;;;;;;4.07;3.77;;;;;;;;;;5031853;28;20051;-86
2022/09/09 09:27:37;;;;;;;3.70;3.40;;;;;;;;;;5023688;28;20057;-86
2022/09/09 09:30:15;;;;;;;3.90;3.60;;;;;;;;;;5022095;28;20076;-83
2022/09/09 09:33:05;;;;;;;4.80;3.78;;;;;;;;;;5028770;28;20061;-85
2022/09/09 09:35:35;;;;;;;4.10;3.72;;;;;;;;;;5013280;28;20022;-84
2022/09/09 09:38:39;;;;;;;6.28;3.50;;;;;;;;;;5048663;28;20045;-83
2022/09/09 09:44:39;;;;;;;4.22;3.83;;;;;;;;;;5034329;28;20541;-84
2022/09/09 09:47:26;;;;;;;6.38;4.00;;;;;;;;;;5019583;28;20670;-84
2022/09/09 09:50:18;;;;;;;7.38;3.83;;;;;;;;;;5037241;28;20053;-83
2022/09/09 09:53:19;;;;;;;3.65;3.35;;;;;;;;;;5032665;28;20120;-84
2022/09/09 09:56:29;;;;;;;4.05;3.75;;;;;;;;;;5048901;28;20037;-85
2022/09/09 09:59:04;;;;;;;3.70;3.45;;;;;;;;;;5048738;28;20037;-84
2022/09/09 10:01:53;;;;;;;5.63;3.97;;;;;;;;;;5035381;28;20046;-84
2022/09/09 10:04:29;;;;;;;5.63;3.80;;;;;;;;;;5033522;28;20061;-84
2022/09/09 10:07:58;;;;;;;3.80;3.45;;;;;;;;;;5047930;28;20153;-83
2022/09/09 10:10:42;;;;;;;4.70;3.58;;;;;;;;;;5033636;28;20042;-83
2022/09/09 10:13:29;;;;;;;6.05;3.38;;;;;;;;;;5050115;28;20072;-82
2022/09/09 10:16:10;;;;;;;3.55;3.25;;;;;;;;;;5048169;28;20049;-83
2022/09/09 10:18:50;;;;;;;4.32;3.42;;;;;;;;;;5031579;28;20076;-83
2022/09/09 10:21:25;;;;;;;3.03;2.83;;;;;;;;;;5049316;28;20048;-85
2022/09/09 10:24:23;;;;;;;3.13;2.90;;;;;;;;;;5047270;28;20036;-84
2022/09/09 10:26:59;;;;;;;3.35;2.30;;;;;;;;;;5039939;28;20045;-83
2022/09/09 10:29:51;;;;;;;3.58;2.42;;;;;;;;;;5040291;23;20053;-82
2022/09/09 10:32:33;;;;;;;3.40;2.72;;;;;;;;;;5031532;28;20068;-83
2022/09/09 10:35:11;;;;;;;2.85;2.20;;;;;;;;;;5015494;28;20458;-83
2022/09/09 10:37:38;;;;;;;3.08;2.60;;;;;;;;;;5015320;28;20050;-83
2022/09/09 10:40:19;;;;;;;3.15;2.85;;;;;;;;;;5031736;28;20213;-83
2022/09/09 10:42:47;;;;;;;3.07;2.70;;;;;;;;;;5014931;28;20053;-83
2022/09/09 10:45:19;;;;;;;2.90;2.70;;;;;;;;;;5033688;28;20328;-83
2022/09/09 10:48:13;;;;;;;4.13;3.13;;;;;;;;;;5015337;28;20061;-83
2022/09/09 10:50:43;;;;;;;4.10;2.85;;;;;;;;;;5036810;28;20080;-83
2022/09/09 10:53:33;;;;;;;6.45;2.55;;;;;;;;;;5028418;28;20054;-83
2022/09/09 10:56:13;;;;;;;3.00;2.50;;;;;;;;;;5041826;28;20053;-82
2022/09/09 10:58:52;;;;;;;3.30;2.80;;;;;;;;;;5043712;28;20045;-82
2022/09/09 11:01:29;;;;;;;5.63;2.90;;;;;;;;;;5044646;28;20068;-82
2022/09/09 11:04:06;;;;;;;3.60;3.30;;;;;;;;;;5000323;28;20050;-83
2022/09/09 11:06:38;;;;;;;4.88;3.33;;;;;;;;;;5029627;28;20049;-83
2022/09/09 11:09:05;;;;;;;;;;;;;;;;;;5033167;28;20054;-83
2022/09/09 11:11:46;;;;;;;3.75;3.05;;;;;;;;;;5033655;28;19925;-82
2022/09/09 11:14:20;;;;;;;4.63;3.13;;;;;;;;;;5033552;28;20049;-83
2022/09/09 11:16:52;;;;;;;4.55;3.53;;;;;;;;;;5034445;28;20237;-83
2022/09/09 11:19:38;;;;;;;5.55;3.38;;;;;;;;;;5025487;28;20041;-81
2022/09/09 11:22:16;;;;;;;5.13;4.00;;;;;;;;;;5053696;28;20156;-82
2022/09/09 11:24:56;;;;;;;4.55;3.95;;;;;;;;;;5051499;28;20077;-82
2022/09/09 11:27:24;;;;;;;5.15;4.00;;;;;;;;;;5032532;28;20048;-82
2022/09/09 11:30:07;;;;;;;8.02;3.90;;;;;;;;;;5030451;28;20120;-82
2022/09/09 11:33:02;;;;;;;6.15;3.65;;;;;;;;;;5029554;28;20046;-79
2022/09/09 11:35:44;;;;;;;4.28;3.83;;;;;;;;;;5034568;28;20034;-79
2022/09/09 11:38:11;;;;;;;;;;;;;;;;;;5036451;28;20025;-82
2022/09/09 11:40:39;;;;;;;4.03;3.60;;;;;;;;;;5046814;28;19992;-82
2022/09/09 11:43:12;;;;;;;3.88;3.47;;;;;;;;;;5035239;28;20442;-80
2022/09/09 11:45:41;;;;;;;3.83;3.50;;;;;;;;;;5036952;28;20060;-80
2022/09/09 11:48:27;;;;;;;4.78;3.78;;;;;;;;;;5044215;28;20084;-80
2022/09/09 11:51:18;;;;;;;8.07;4.32;;;;;;;;;;5036170;28;20022;-80
2022/09/09 11:53:49;;;;;;;6.10;4.55;;;;;;;;;;5035086;28;20049;-81
2022/09/09 11:56:33;;;;;;;5.28;4.40;;;;;;;;;;5037621;28;20034;-80
2022/09/09 11:59:05;;;;;;;7.40;4.78;;;;;;;;;;5036539;28;20038;-80
2022/09/09 12:01:42;;;;;;;7.75;5.47;;;;;;;;;;5027285;28;20060;-81
2022/09/09 12:04:10;;;;;;;8.65;4.90;;;;;;;;;;5039962;28;20145;-80
2022/09/09 12:06:46;;;;;;;8.48;4.95;;;;;;;;;;5034861;28;20050;-81
2022/09/09 12:09:17;;;;;;;5.60;4.47;;;;;;;;;;5016858;28;20140;-81
2022/09/09 12:11:44;;;;;;;6.65;4.28;;;;;;;;;;5029711;28;20045;-83
2022/09/09 12:14:22;;;;;;;11.32;4.53;;;;;;;;;;5031442;28;20049;-81
2022/09/09 12:16:50;;;;;;;7.15;4.63;;;;;;;;;;5025229;28;20091;-82
2022/09/09 12:19:20;;;;;;;6.28;5.07;;;;;;;;;;5026675;28;20037;-82
2022/09/09 12:22:17;;;;;;;6.18;4.60;;;;;;;;;;5021904;28;20037;-82
2022/09/09 12:24:59;;;;;;;5.82;4.25;;;;;;;;;;5012918;28;20479;-82
2022/09/09 12:27:57;;;;;;;4.18;3.78;;;;;;;;;;5032140;28;20094;-83
2022/09/09 12:30:30;;;;;;;5.30;4.30;;;;;;;;;;5022781;28;20056;-82
2022/09/09 12:33:02;;;;;;;5.82;3.78;;;;;;;;;;5031313;28;20041;-81
2022/09/09 12:35:31;;;;;;;3.83;2.97;;;;;;;;;;5025841;28;20091;-82
2022/09/09 12:38:02;;;;;;;3.88;3.08;;;;;;;;;;5019135;28;20046;-84
2022/09/09 12:40:32;;;;;;;4.32;3.10;;;;;;;;;;5005274;28;20033;-83
2022/09/09 12:43:01;;;;;;;7.43;3.42;;;;;;;;;;5021195;28;20116;-82
2022/09/09 12:45:33;;;;;;;3.40;2.58;;;;;;;;;;5023464;28;20594;-82
2022/09/09 12:48:00;;;;;;;4.80;3.00;;;;;;;;;;5007799;28;20053;-83
2022/09/09 12:50:32;;;;;;;2.63;2.42;;;;;;;;;;5024869;28;20041;-84
2022/09/09 12:53:01;;;;;;;3.58;2.10;;;;;;;;;;5028214;28;20171;-83
2022/09/09 12:55:30;;;;;;;3.40;2.50;;;;;;;;;;5028567;28;20503;-81
2022/09/09 12:57:59;;;;;;;2.42;2.15;;;;;;;;;;5026098;28;20045;-84
2022/09/09 13:00:28;;;;;;;3.25;2.47;;;;;;;;;;5032833;28;20064;-82
2022/09/09 13:02:57;;;;;;;3.40;3.10;;;;;;;;;;5028939;28;20049;-84
2022/09/09 13:05:29;;;;;;;3.45;2.70;;;;;;;;;;5025062;28;20037;-82
2022/09/09 13:08:04;;;;;;;3.55;2.88;;;;;;;;;;5014104;28;20141;-82
2022/09/09 13:10:38;;;;;;;4.45;2.97;;;;;;;;;;5012115;28;20116;-82
2022/09/09 13:13:25;;;;;;;4.57;3.00;;;;;;;;;;5026654;28;20037;-83
2022/09/09 13:15:56;;;;;;;3.65;2.80;;;;;;;;;;5025906;28;20036;-82
2022/09/09 13:18:25;;;;;;;4.65;2.67;;;;;;;;;;5025130;28;20065;-82
2022/09/09 13:20:52;;;;;;;3.30;2.90;;;;;;;;;;5023797;28;20124;-84
2022/09/09 13:23:21;;;;;;;4.13;3.30;;;;;;;;;;5026394;28;20042;-82
2022/09/09 13:25:56;;;;;;;4.55;3.20;;;;;;;;;;5020760;28;20045;-81
2022/09/09 13:28:25;;;;;;;2.83;2.58;;;;;;;;;;5037997;28;20049;-80
2022/09/09 13:31:00;;;;;;;2.80;2.50;;;;;;;;;;5029311;28;20525;-81
2022/09/09 13:33:34;;;;;;;6.50;2.13;;;;;;;;;;5025069;28;20156;-81
2022/09/09 13:36:04;;;;;;;3.97;2.30;;;;;;;;;;5023237;28;20672;-81
2022/09/09 13:38:51;;;;;;;2.45;2.25;;;;;;;;;;5026131;28;20038;-83
2022/09/09 13:41:23;;;;;;;2.17;2.00;;;;;;;;;;5017390;28;20068;-81
2022/09/09 13:43:51;;;;;;;2.90;1.70;;;;;;;;;;5041060;28;20037;-81
2022/09/09 13:46:24;;;;;;;2.10;1.98;;;;;;;;;;5026453;28;20142;-81
2022/09/09 13:48:56;;;;;;;2.67;1.90;;;;;;;;;;5031649;28;20570;-82
2022/09/09 13:51:33;;;;;;;3.00;1.85;;;;;;;;;;5026174;28;20059;-81
2022/09/09 13:54:00;;;;;;;3.47;1.60;;;;;;;;;;5014438;28;20095;-80
2022/09/09 13:56:28;;;;;;;2.03;1.60;;;;;;;;;;5028120;28;20109;-81
2022/09/09 13:58:57;;;;;;;4.43;1.65;;;;;;;;;;5031776;28;20061;-82
2022/09/09 14:01:25;;;;;;;4.25;1.85;;;;;;;;;;5023932;28;20055;-80
2022/09/09 14:03:56;;;;;;;2.22;1.20;;;;;;;;;;5032814;28;20496;-81
2022/09/09 14:06:24;;;;;;;2.33;1.45;;;;;;;;;;5031318;28;20083;-81
2022/09/09 14:08:51;;;;;;;3.42;1.65;;;;;;;;;;5033978;28;20049;-80
2022/09/09 14:11:19;;;;;;;2.83;1.80;;;;;;;;;;5028108;28;20056;-81
2022/09/09 14:13:46;;;;;;;1.80;1.55;;;;;;;;;;5035060;28;20045;-82
2022/09/09 14:16:13;;;;;;;1.33;1.23;;;;;;;;;;5032250;28;20065;-82
2022/09/09 14:18:41;;;;;;;4.22;1.20;;;;;;;;;;5036316;28;20546;-82
2022/09/09 14:21:08;;;;;;;1.10;1.05;;;;;;;;;;5025641;28;20638;-81
2022/09/09 14:23:36;;;;;;;1.85;1.60;;;;;;;;;;5034409;28;20049;-81
2022/09/09 14:26:03;;;;;;;1.65;1.55;;;;;;;;;;5012108;28;20159;-81
2022/09/09 14:28:31;;;;;;;3.35;1.67;;;;;;;;;;5029466;28;20442;-81
2022/09/09 14:31:18;;;;;;;1.30;1.20;;;;;;;;;;5032141;28;20513;-81
2022/09/09 14:33:45;;;;;;;2.30;1.55;;;;;;;;;;5032310;28;20041;-84
2022/09/09 14:36:13;;;;;;;2.75;1.33;;;;;;;;;;5032564;28;20037;-81
2022/09/09 14:38:41;;;;;;;2.78;1.30;;;;;;;;;;5031541;28;20037;-80
2022/09/09 14:41:12;;;;;;;3.33;1.30;;;;;;;;;;5032567;28;20045;-81
2022/09/09 14:43:40;;;;;;;1.67;1.42;;;;;;;;;;5028057;28;20058;-80
2022/09/09 14:46:11;;;;;;;1.42;1.30;;;;;;;;;;5032286;28;20494;-81
2022/09/09 14:48:42;;;;;;;1.20;1.10;;;;;;;;;;5032704;28;20454;-80
2022/09/09 14:51:10;;;;;;;1.42;1.33;;;;;;;;;;5034064;28;20501;-81
2022/09/09 14:53:37;;;;;;;1.98;1.50;;;;;;;;;;5033705;28;20050;-81
2022/09/09 14:56:09;;;;;;;3.60;2.42;;;;;;;;;;5015590;28;20061;-81
2022/09/09 14:58:37;;;;;;;2.70;1.80;;;;;;;;;;5010289;28;20076;-82
2022/09/09 15:01:12;;;;;;;2.15;1.95;;;;;;;;;;5029535;28;20037;-79
2022/09/09 15:03:40;;;;;;;3.03;2.38;;;;;;;;;;5029759;28;20041;-79
2022/09/09 15:06:09;;;;;;;3.17;2.70;;;;;;;;;;5029855;28;20041;-81
2022/09/09 15:08:37;;;;;;;2.67;2.47;;;;;;;;;;5029786;28;20053;-80
2022/09/09 15:11:10;;;;;;;3.28;2.17;;;;;;;;;;5030167;28;20037;-82
2022/09/09 15:13:38;;;;;;;2.10;2.00;;;;;;;;;;5024679;28;20045;-81
2022/09/09 15:16:15;;;;;;;2.42;2.08;;;;;;;;;;5027402;28;20037;-82
2022/09/09 15:18:44;;;;;;;3.58;1.85;;;;;;;;;;5029505;28;20041;-82
2022/09/09 15:21:13;;;;;;;5.65;1.80;;;;;;;;;;5027633;28;20053;-82
2022/09/09 15:23:40;;;;;;;1.55;1.45;;;;;;;;;;5029594;28;20053;-83
2022/09/09 15:26:08;;;;;;;2.38;2.17;;;;;;;;;;5030016;28;20111;-82
2022/09/09 15:28:37;;;;;;;2.42;1.75;;;;;;;;;;5028526;28;20132;-82
2022/09/09 15:31:09;;;;;;;2.92;1.73;;;;;;;;;;5024281;28;20040;-82
2022/09/09 15:33:37;;;;;;;5.13;2.00;;;;;;;;;;5022833;28;20051;-83